createdAt,value
2023-01-04T00:01:52.491Z,4.48
2023-01-04T00:06:59.726Z,4.48
2023-01-04T00:12:06.918Z,4.48
2023-01-04T00:17:14.123Z,4.48
2023-01-04T00:22:21.316Z,4.48
2023-01-04T00:27:28.545Z,4.48
2023-01-04T00:32:35.734Z,4.48
2023-01-04T00:37:46.942Z,4.48
2023-01-04T00:42:50.208Z,4.48
2023-01-04T00:47:57.439Z,4.48
2023-01-04T00:53:04.657Z,4.48
2023-01-04T00:58:11.981Z,4.48
2023-01-04T01:03:19.368Z,4.48
2023-01-04T01:08:26.419Z,3.62
2023-01-04T01:13:33.625Z,3.62
2023-01-04T01:18:40.784Z,3.62
2023-01-04T01:23:47.992Z,3.62
2023-01-04T01:28:55.239Z,4.48
2023-01-04T01:34:02.455Z,4.48
2023-01-04T01:39:09.673Z,4.48
2023-01-04T01:44:16.946Z,4.48
2023-01-04T01:49:24.134Z,4.48
2023-01-04T01:54:31.311Z,4.48
2023-01-04T01:59:38.538Z,4.48
2023-01-04T02:04:45.737Z,4.48
2023-01-04T02:09:52.913Z,4.48
2023-01-04T02:15:00.240Z,3.62
2023-01-04T02:20:07.335Z,3.62
2023-01-04T02:25:14.524Z,3.62
2023-01-04T02:30:21.781Z,3.62
2023-01-04T02:35:28.908Z,3.62
2023-01-04T02:40:36.148Z,3.62
2023-01-04T02:45:43.423Z,3.62
2023-01-04T02:50:50.609Z,3.62
2023-01-04T02:55:57.840Z,3.62
2023-01-04T03:01:05.191Z,3.62
2023-01-04T03:06:12.329Z,3.62
2023-01-04T03:11:19.535Z,3.62
2023-01-04T03:16:26.921Z,3.62
2023-01-04T03:21:33.891Z,3.62
2023-01-04T03:26:41.049Z,3.62
2023-01-04T03:31:48.457Z,3.62
2023-01-04T03:36:55.500Z,3.62
2023-01-04T03:42:02.732Z,3.62
2023-01-04T03:47:10.062Z,3.62
2023-01-04T03:52:17.208Z,3.62
2023-01-04T03:57:24.445Z,3.62
2023-01-04T04:02:31.637Z,3.62
2023-01-04T04:07:38.841Z,3.62
2023-01-04T04:12:46.035Z,3.13
2023-01-04T04:17:53.257Z,3.13
2023-01-04T04:23:00.405Z,3.13
2023-01-04T04:28:07.674Z,3.13
2023-01-04T04:33:14.873Z,3.13
2023-01-04T04:38:22.099Z,3.13
2023-01-04T04:43:29.243Z,3.13
2023-01-04T04:48:36.517Z,3.13
2023-01-04T04:53:43.726Z,3.13
2023-01-04T04:58:50.918Z,3.13
2023-01-04T05:03:58.076Z,3.13
2023-01-04T05:09:05.244Z,3.13
2023-01-04T05:14:12.402Z,3.13
2023-01-04T05:19:19.636Z,3.13
2023-01-04T05:24:26.859Z,3.13
2023-01-04T05:29:34.036Z,3.13
2023-01-04T05:34:41.240Z,3.13
2023-01-04T05:39:48.426Z,3.13
2023-01-04T05:44:55.666Z,3.13
2023-01-04T05:50:02.835Z,3.13
2023-01-04T05:55:10.072Z,3.13
2023-01-04T06:00:17.246Z,3.13
2023-01-04T06:05:24.480Z,3.13
2023-01-04T06:10:31.659Z,3.13
2023-01-04T06:15:43.017Z,3.13
2023-01-04T06:20:46.083Z,3.13
2023-01-04T06:25:53.264Z,3.13
2023-01-04T06:31:00.542Z,3.13
2023-01-04T06:36:07.676Z,3.13
2023-01-04T06:41:14.870Z,3.13
2023-01-04T06:46:22.139Z,3.13
2023-01-04T06:51:29.311Z,3.13
2023-01-04T06:56:36.462Z,3.13
2023-01-04T07:01:43.739Z,3.13
2023-01-04T07:06:50.916Z,3.13
2023-01-04T07:11:57.991Z,3.13
2023-01-04T07:17:05.195Z,3.13
2023-01-04T07:22:12.501Z,3.13
2023-01-04T07:27:19.586Z,3.13
2023-01-04T07:32:26.715Z,3.13
2023-01-04T07:37:34.001Z,3.13
2023-01-04T07:42:41.163Z,3.13
2023-01-04T07:47:48.403Z,3.13
2023-01-04T07:52:55.662Z,3.13
2023-01-04T07:58:02.837Z,3.13
2023-01-04T08:03:10.115Z,3.13
2023-01-04T08:08:17.275Z,3.13
2023-01-04T08:13:24.461Z,3.13
2023-01-04T08:18:31.679Z,3.13
2023-01-04T08:23:38.939Z,3.13
2023-01-04T08:28:46.074Z,3.13
2023-01-04T08:33:53.258Z,3.13
2023-01-04T08:39:01.887Z,3.13
2023-01-04T08:44:07.721Z,3.13
2023-01-04T08:49:14.898Z,3.13
2023-01-04T08:54:22.142Z,3.13
2023-01-04T08:59:29.310Z,3.13
2023-01-04T09:04:36.571Z,3.13
2023-01-04T09:09:43.795Z,3.13
2023-01-04T09:14:50.905Z,3.13
2023-01-04T09:19:58.087Z,3.62
2023-01-04T09:25:05.345Z,3.62
2023-01-04T09:30:12.487Z,3.62
2023-01-04T09:35:19.723Z,3.62
2023-01-04T09:40:27.022Z,3.62
2023-01-04T09:45:34.089Z,3.62
2023-01-04T09:50:41.287Z,3.62
2023-01-04T09:55:48.577Z,3.62
2023-01-04T10:00:55.859Z,3.62
2023-01-04T10:06:03.007Z,3.62
2023-01-04T10:11:10.250Z,3.21
2023-01-04T10:16:25.052Z,4.08
2023-01-04T10:21:32.767Z,3.21
2023-01-04T10:26:31.930Z,3.62
2023-01-04T10:31:41.848Z,3.62
2023-01-04T10:36:46.314Z,3.62
2023-01-04T10:41:53.537Z,3.62
2023-01-04T10:47:00.861Z,3.62
2023-01-04T10:52:07.902Z,3.62
2023-01-04T10:57:15.148Z,3.62
2023-01-04T11:02:22.438Z,3.62
2023-01-04T11:07:29.487Z,3.62
2023-01-04T11:12:36.739Z,3.62
2023-01-04T11:17:43.868Z,3.13
2023-01-04T11:22:51.150Z,3.13
2023-01-04T11:27:58.271Z,3.13
2023-01-04T11:33:05.439Z,4.00
2023-01-04T11:38:12.651Z,4.00
2023-01-04T11:43:19.978Z,4.00
2023-01-04T11:48:27.064Z,4.00
2023-01-04T11:53:34.383Z,4.00
2023-01-04T11:58:41.609Z,4.00
2023-01-04T12:03:48.857Z,4.00
2023-01-04T12:08:56.210Z,4.00
2023-01-04T12:14:03.474Z,4.00
2023-01-04T12:19:10.578Z,4.00
2023-01-04T12:24:17.792Z,4.00
2023-01-04T12:29:25.094Z,4.00
2023-01-04T12:34:32.210Z,4.00
2023-01-04T12:39:39.412Z,4.48
2023-01-04T12:44:46.607Z,4.48
2023-01-04T12:49:53.826Z,4.48
2023-01-04T12:55:01.037Z,4.48
2023-01-04T13:00:08.253Z,4.48
2023-01-04T13:10:22.701Z,4.48
2023-01-04T13:15:29.959Z,4.48
2023-01-04T13:20:37.131Z,4.48
2023-01-04T13:25:44.352Z,4.95
2023-01-04T13:30:51.560Z,4.95
2023-01-04T13:35:58.645Z,4.95
2023-01-04T13:41:05.871Z,4.95
2023-01-04T13:46:13.130Z,4.95
2023-01-04T13:51:20.171Z,4.95
2023-01-04T13:56:27.388Z,4.95
2023-01-04T14:01:34.718Z,4.48
2023-01-04T14:06:41.795Z,4.48
2023-01-04T14:11:48.985Z,4.48
2023-01-04T14:16:56.251Z,4.48
2023-01-04T14:22:03.418Z,4.48
2023-01-04T14:27:10.752Z,4.48
2023-01-04T14:32:18.171Z,4.48
2023-01-04T14:37:25.346Z,4.48
2023-01-04T14:42:32.513Z,4.48
2023-01-04T14:47:39.775Z,4.48
2023-01-04T14:52:46.934Z,4.48
2023-01-04T14:57:54.146Z,4.48
2023-01-04T15:03:01.664Z,4.48
2023-01-04T15:08:08.627Z,5.35
2023-01-04T15:13:15.859Z,5.35
2023-01-04T15:18:23.108Z,5.35
2023-01-04T15:23:30.340Z,5.35
2023-01-04T15:28:37.571Z,4.00
2023-01-04T15:33:44.795Z,4.00
2023-01-04T15:38:51.977Z,4.00
2023-01-04T15:43:59.245Z,4.00
2023-01-04T15:49:08.301Z,4.00
2023-01-04T15:54:13.739Z,4.00
2023-01-04T15:59:20.916Z,4.48
2023-01-04T16:04:28.177Z,4.48
2023-01-04T16:09:35.372Z,4.48
2023-01-04T16:14:42.561Z,4.48
2023-01-04T16:19:50.641Z,4.48
2023-01-04T16:25:13.346Z,4.48
2023-01-04T16:30:05.085Z,5.35
2023-01-04T16:35:12.315Z,5.35
2023-01-04T16:40:19.491Z,5.35
2023-01-04T16:45:26.689Z,5.35
2023-01-04T16:50:33.930Z,5.35
2023-01-04T16:55:41.099Z,5.35
2023-01-04T17:00:48.362Z,5.35
2023-01-04T17:05:55.821Z,5.35
2023-01-04T17:11:38.586Z,5.35
2023-01-04T17:16:10.297Z,5.82
2023-01-04T17:21:33.684Z,5.82
2023-01-04T17:26:25.153Z,5.82
2023-01-04T17:31:32.415Z,5.82
2023-01-04T17:36:40.758Z,5.82
2023-01-04T17:41:47.975Z,5.82
2023-01-04T17:46:55.376Z,5.82
2023-01-04T17:52:02.720Z,5.82
2023-01-04T17:57:09.924Z,5.82
2023-01-04T18:02:17.230Z,5.82
2023-01-04T18:07:24.678Z,5.82
2023-01-04T18:12:31.935Z,5.82
2023-01-04T18:17:39.429Z,5.82
2023-01-04T18:22:47.245Z,5.35
2023-01-04T18:27:54.856Z,5.35
2023-01-04T18:33:02.163Z,5.35
2023-01-04T18:38:09.702Z,5.35
2023-01-04T18:43:17.309Z,5.35
2023-01-04T18:48:24.520Z,5.35
2023-01-04T18:53:31.927Z,5.35
2023-01-04T18:58:39.520Z,4.86
2023-01-04T19:03:47.209Z,4.86
2023-01-04T19:08:58.079Z,4.86
2023-01-04T19:14:02.473Z,5.21
2023-01-04T19:19:10.078Z,5.21
2023-01-04T19:24:17.715Z,5.21
2023-01-04T19:29:25.124Z,5.21
2023-01-04T19:34:32.562Z,5.21
2023-01-04T19:39:40.157Z,4.69
2023-01-04T19:44:47.640Z,4.69
2023-01-04T19:49:55.003Z,4.69
2023-01-04T19:55:02.484Z,4.69
2023-01-04T20:00:10.176Z,4.69
2023-01-04T20:05:17.796Z,4.69
2023-01-04T20:10:25.432Z,4.69
2023-01-04T20:15:33.021Z,4.15
2023-01-04T20:20:40.643Z,4.15
2023-01-04T20:25:48.089Z,4.15
2023-01-04T20:30:55.626Z,4.69
2023-01-04T20:36:03.172Z,4.15
2023-01-04T20:41:10.816Z,4.15
2023-01-04T20:46:18.189Z,4.15
2023-01-04T20:51:25.349Z,4.15
2023-01-04T20:56:32.837Z,4.15
2023-01-04T21:01:40.309Z,4.15
2023-01-04T21:06:47.331Z,4.15
2023-01-04T21:11:55.942Z,4.15
2023-01-04T21:17:01.938Z,4.15
2023-01-04T21:22:09.160Z,4.15
2023-01-04T21:27:16.573Z,4.15
2023-01-04T21:32:23.937Z,4.15
2023-01-04T21:37:31.222Z,4.15
2023-01-04T21:42:38.701Z,4.15
2023-01-04T21:47:46.005Z,4.15
2023-01-04T21:52:53.230Z,4.15
2023-01-04T21:58:00.491Z,4.15
2023-01-04T22:03:07.772Z,4.15
2023-01-04T22:08:14.922Z,4.15
2023-01-04T22:13:22.153Z,4.15
2023-01-04T22:18:29.283Z,3.59
2023-01-04T22:23:36.541Z,4.15
2023-01-04T22:28:43.757Z,3.59
2023-01-04T22:33:50.936Z,3.59
2023-01-04T22:38:58.079Z,3.59
2023-01-04T22:44:05.268Z,3.59
2023-01-04T22:49:12.471Z,3.59
2023-01-04T22:54:19.647Z,3.59
2023-01-04T22:59:26.963Z,3.59
2023-01-04T23:04:34.095Z,3.59
2023-01-04T23:09:41.286Z,3.59
2023-01-04T23:14:48.542Z,3.59
2023-01-04T23:19:55.667Z,3.59
2023-01-04T23:25:02.937Z,3.59
2023-01-04T23:30:10.189Z,3.59
2023-01-04T23:35:17.400Z,3.59
2023-01-04T23:40:24.625Z,4.15
2023-01-04T23:45:31.977Z,4.15
2023-01-04T23:50:39.105Z,3.59
2023-01-04T23:55:46.277Z,3.59
